Haderslev, Denmark

8:30 AM CEST on August 22, 2014 (GMT +0200)
Vojens-Skrydstrup Air Base | Change Station
CLOSE
Current Station
Airport
Location: Skrydstrup,
Elevation: 154 ft
Nearby Weather Stations

Elev 154 ft 55.23 °N, 9.26 °E | Updated 10 minutes ago

Light Rain Showers
Light Showers Rain Mist
52 °F
Feels Like 52 °F
N
12
Wind Variable Wind from South

Today
High -- | Low -- °F
--% Chance of Precip.
Yesterday
High -- | Low -- °F
Precip. -- in
6:08 AM 8:40 PM
Waning Crescent, 10% visible
Pressure 29.74 in
Visibility 1.9 miles
Clouds Few 800 ft
Mostly Cloudy 5000 ft
Dew Point 52 °F
Humidity 100%
Rainfall 0.00 in
Snow Depth Not available.
UV 1 out of 12
Pollen Not available.
Air Quality Not available.
Flu Activity Not available.
METAR EKSP 220620Z 18010KT 3000 -SHRA BR FEW008 BKN050 11/11 Q1007 TEMPO 3000 SHRA SCT025CB

More Conditions Fewer Conditions

Pressure 29.74 in
Visibility 1.9 miles
Clouds Few 800 ft
Mostly Cloudy 5000 ft
Dew Point 52 °F
Humidity 100%
Rainfall 0.00 in
Snow Depth Not available.
UV 1 out of 12
Pollen Not available.
Air Quality Not available.
Flu Activity Not available.
METAR EKSP 220620Z 18010KT 3000 -SHRA BR FEW008 BKN050 11/11 Q1007 TEMPO 3000 SHRA SCT025CB

More Conditions Fewer Conditions

10-Day Weather Forecast

Almanac

Astronomy

Aug. 22, 2014 Rise Set
Actual Time 6:08 AM CEST 8:40 PM CEST
Civil Twilight 5:27 AM CEST 9:20 PM CEST
Nautical Twilight 4:34 AM CEST 10:12 PM CEST
Astronomical Twilight 3:28 AM CEST 11:17 PM CEST
Moon 3:01 AM CEST 6:48 PM CEST
Length of Visible Light 15h 52m
Length of Day
14h 31m
Tomorrow will be 4m 19s shorter.
Waning Crescent, 10% of the Moon is Illuminated
Today
Waning Crescent
Aug 25
New
Sep 2
First Quarter
Sep 8
Full
Sep 15
Last Quarter

Yesterday's Extremes

Country Highs Country Lows

Community

WunderPhotos

Upload Photos

1,746,131 photos uploaded!

Nearby

Snow Depth

Not available.

Earthquake Activity

City Distance Mag. Time & Date
No recent earthquake activity has been reported nearby.
Minimum magnitude displayed is 2.5.

Coastal Water Temperatures

Place Temperature
No Stations Reporting

Nearby Weather Stations